createdAt,value
2019-01-04T00:00:09.358Z,34.50
2019-01-04T00:02:35.426Z,34.60
2019-01-04T00:05:01.409Z,34.50
2019-01-04T00:07:27.378Z,34.50
2019-01-04T00:09:53.326Z,34.50
2019-01-04T00:12:19.275Z,34.50
2019-01-04T00:14:45.222Z,34.50
2019-01-04T00:17:11.192Z,34.60
2019-01-04T00:19:37.238Z,34.60
2019-01-04T00:22:03.186Z,34.60
2019-01-04T00:24:29.937Z,34.50
2019-01-04T00:26:56.208Z,34.50
2019-01-04T00:29:22.203Z,34.50
2019-01-04T00:31:48.149Z,34.50
2019-01-04T00:34:14.109Z,34.60
2019-01-04T00:36:40.577Z,34.70
2019-01-04T00:39:06.632Z,34.60
2019-01-04T00:41:32.557Z,34.60
2019-01-04T00:43:58.544Z,34.80
2019-01-04T00:46:24.573Z,34.70
2019-01-04T00:48:50.509Z,34.60
2019-01-04T00:51:16.469Z,34.70
2019-01-04T00:53:42.498Z,34.70
2019-01-04T00:56:08.446Z,35.40
2019-01-04T00:58:34.395Z,34.70
2019-01-04T01:01:00.369Z,34.60
2019-01-04T01:03:26.331Z,34.70
2019-01-04T01:05:52.270Z,34.50
2019-01-04T01:08:18.255Z,34.50
2019-01-04T01:10:44.197Z,34.50
2019-01-04T01:13:10.139Z,34.60
2019-01-04T01:15:36.073Z,34.50
2019-01-04T01:18:02.009Z,34.50
2019-01-04T01:20:27.974Z,34.50
2019-01-04T01:22:53.975Z,34.40
2019-01-04T01:25:20.010Z,34.40
2019-01-04T01:27:45.979Z,34.40
2019-01-04T01:30:11.932Z,34.40
2019-01-04T01:32:37.860Z,34.60
2019-01-04T01:35:03.813Z,34.50
2019-01-04T01:37:29.741Z,35.20
2019-01-04T01:39:55.708Z,34.50
2019-01-04T01:42:21.673Z,34.50
2019-01-04T01:44:47.613Z,34.50
2019-01-04T01:47:13.552Z,34.50
2019-01-04T01:49:39.524Z,34.50
2019-01-04T01:52:05.477Z,34.50
2019-01-04T01:54:31.444Z,34.50
2019-01-04T01:56:57.360Z,34.50
2019-01-04T01:59:23.316Z,34.40
2019-01-04T02:01:49.256Z,34.40
2019-01-04T02:04:15.218Z,34.60
2019-01-04T02:06:41.174Z,34.60
2019-01-04T02:09:08.522Z,34.60
2019-01-04T02:11:34.486Z,34.60
2019-01-04T02:14:00.553Z,34.70
2019-01-04T02:16:26.602Z,34.60
2019-01-04T02:18:52.559Z,34.70
2019-01-04T02:21:18.523Z,34.60
2019-01-04T02:23:44.470Z,34.70
2019-01-04T02:26:10.423Z,34.60
2019-01-04T02:28:36.358Z,34.60
2019-01-04T02:31:02.321Z,34.60
2019-01-04T02:33:28.276Z,34.60
2019-01-04T02:35:54.231Z,34.40
2019-01-04T02:38:20.266Z,34.50
2019-01-04T02:40:46.233Z,34.50
2019-01-04T02:43:12.174Z,34.50
2019-01-04T02:45:38.114Z,34.40
2019-01-04T02:48:04.082Z,34.20
2019-01-04T02:50:30.033Z,34.20
2019-01-04T02:52:55.972Z,34.20
2019-01-04T02:55:21.906Z,34.10
2019-01-04T02:57:47.857Z,34.10
2019-01-04T03:00:13.819Z,34.10
2019-01-04T03:02:39.760Z,34.10
2019-01-04T03:05:05.719Z,34.20
2019-01-04T03:07:31.661Z,34.10
2019-01-04T03:09:57.620Z,34.20
2019-01-04T03:12:23.562Z,34.20
2019-01-04T03:14:49.516Z,34.30
2019-01-04T03:17:15.552Z,34.20
2019-01-04T03:19:41.509Z,34.20
2019-01-04T03:22:07.460Z,34.30
2019-01-04T03:24:33.420Z,34.30
2019-01-04T03:26:59.365Z,34.40
2019-01-04T03:29:25.320Z,34.40
2019-01-04T03:31:51.346Z,34.40
2019-01-04T03:34:17.422Z,34.40
2019-01-04T03:36:43.357Z,34.60
2019-01-04T03:39:09.297Z,34.40
2019-01-04T03:41:35.259Z,34.50
2019-01-04T03:44:01.187Z,34.50
2019-01-04T03:46:28.502Z,34.50
2019-01-04T03:48:54.458Z,34.50
2019-01-04T03:51:20.405Z,34.50
2019-01-04T03:53:46.362Z,34.40
2019-01-04T03:56:12.305Z,34.40
2019-01-04T03:58:38.255Z,34.40
2019-01-04T04:01:04.193Z,34.40
2019-01-04T04:03:30.159Z,34.40
2019-01-04T04:05:56.109Z,34.30
2019-01-04T04:08:22.047Z,34.40
2019-01-04T04:10:47.984Z,34.40
2019-01-04T04:13:13.915Z,34.40
2019-01-04T04:15:39.877Z,34.60
2019-01-04T04:18:05.820Z,34.40
2019-01-04T04:20:31.779Z,34.40
2019-01-04T04:22:57.747Z,34.40
2019-01-04T04:25:23.695Z,34.40
2019-01-04T04:27:49.651Z,34.40
2019-01-04T04:30:15.596Z,35.00
2019-01-04T04:32:41.549Z,34.40
2019-01-04T04:35:07.489Z,34.50
2019-01-04T04:37:33.446Z,34.50
2019-01-04T04:39:59.472Z,34.50
2019-01-04T04:42:25.427Z,34.50
2019-01-04T04:44:51.369Z,34.50
2019-01-04T04:47:17.330Z,34.50
2019-01-04T04:49:43.280Z,35.10
2019-01-04T04:52:09.217Z,34.50
2019-01-04T04:54:35.178Z,34.50
2019-01-04T04:57:01.388Z,34.50
2019-01-04T04:59:27.359Z,34.50
2019-01-04T05:01:53.396Z,34.50
2019-01-04T05:04:19.386Z,34.30
2019-01-04T05:06:45.329Z,34.40
2019-01-04T05:09:11.279Z,34.40
2019-01-04T05:11:37.234Z,34.40
2019-01-04T05:14:03.343Z,34.40
2019-01-04T05:16:30.055Z,34.30
2019-01-04T05:18:56.115Z,34.50
2019-01-04T05:21:22.152Z,34.40
2019-01-04T05:23:48.114Z,34.40
2019-01-04T05:26:14.161Z,34.40
2019-01-04T05:28:40.126Z,34.40
2019-01-04T05:31:06.175Z,34.50
2019-01-04T05:33:32.136Z,34.50
2019-01-04T05:35:58.169Z,34.50
2019-01-04T05:38:24.111Z,34.50
2019-01-04T05:40:50.044Z,34.50
2019-01-04T05:43:16.018Z,34.50
2019-01-04T05:45:42.073Z,34.50
2019-01-04T05:48:08.006Z,34.50
2019-01-04T05:50:33.970Z,34.50
2019-01-04T05:52:59.901Z,34.50
2019-01-04T05:55:25.857Z,34.50
2019-01-04T05:57:51.815Z,34.50
2019-01-04T06:00:17.760Z,34.50
2019-01-04T06:02:43.693Z,34.30
2019-01-04T06:05:09.648Z,34.20
2019-01-04T06:07:35.589Z,34.20
2019-01-04T06:10:01.634Z,34.20
2019-01-04T06:12:27.584Z,34.20
2019-01-04T06:14:53.525Z,34.20
2019-01-04T06:17:19.476Z,34.20
2019-01-04T06:19:45.404Z,34.40
2019-01-04T06:22:11.362Z,34.50
2019-01-04T06:24:37.316Z,34.50
2019-01-04T06:27:03.278Z,34.50
2019-01-04T06:29:29.218Z,34.40
2019-01-04T06:31:55.194Z,34.60
2019-01-04T06:34:21.122Z,34.50
2019-01-04T06:36:47.181Z,34.50
2019-01-04T06:39:13.228Z,34.50
2019-01-04T06:41:39.294Z,34.50
2019-01-04T06:44:05.255Z,34.50
2019-01-04T06:46:31.202Z,34.90
2019-01-04T06:48:57.176Z,34.50
2019-01-04T06:51:27.758Z,34.40
2019-01-04T06:53:50.960Z,34.40
2019-01-04T06:56:16.910Z,34.40
2019-01-04T06:58:42.860Z,34.40
2019-01-04T07:01:08.796Z,34.40
2019-01-04T07:03:34.733Z,34.40
2019-01-04T07:06:00.706Z,34.40
2019-01-04T07:08:26.738Z,34.40
2019-01-04T07:10:52.704Z,34.50
2019-01-04T07:13:18.636Z,34.50
2019-01-04T07:15:44.571Z,34.40
2019-01-04T07:18:10.542Z,34.40
2019-01-04T07:20:36.473Z,34.40
2019-01-04T07:23:02.423Z,34.40
2019-01-04T07:25:28.350Z,34.40
2019-01-04T07:27:54.297Z,34.50
2019-01-04T07:30:20.268Z,34.40
2019-01-04T07:32:46.338Z,34.20
2019-01-04T07:35:12.269Z,34.30
2019-01-04T07:37:38.219Z,34.30
2019-01-04T07:40:04.228Z,34.20
2019-01-04T07:42:30.202Z,34.30
2019-01-04T07:44:56.163Z,34.30
2019-01-04T07:47:22.107Z,34.30
2019-01-04T07:49:48.067Z,34.40
2019-01-04T07:52:14.031Z,34.50
2019-01-04T07:54:40.083Z,34.50
2019-01-04T07:57:06.030Z,34.50
2019-01-04T07:59:31.972Z,34.60
2019-01-04T08:01:57.926Z,34.50
2019-01-04T08:04:23.869Z,34.50
2019-01-04T08:06:49.811Z,34.50
2019-01-04T08:09:15.760Z,34.50
2019-01-04T08:11:41.752Z,34.50
2019-01-04T08:14:07.801Z,34.50
2019-01-04T08:16:34.768Z,34.50
2019-01-04T08:19:00.747Z,34.50
2019-01-04T08:21:26.696Z,34.50
2019-01-04T08:23:52.662Z,34.50
2019-01-04T08:26:18.680Z,34.50
2019-01-04T08:28:44.653Z,34.50
2019-01-04T08:31:10.585Z,34.40
2019-01-04T08:33:36.570Z,34.40
2019-01-04T08:36:02.734Z,34.40
2019-01-04T08:38:28.674Z,34.40
2019-01-04T08:40:54.626Z,34.40
2019-01-04T08:43:20.703Z,34.40
2019-01-04T08:45:46.729Z,34.40
2019-01-04T08:48:12.701Z,34.40
2019-01-04T08:50:38.651Z,34.40
2019-01-04T08:53:04.588Z,34.40
2019-01-04T08:55:30.564Z,34.40
2019-01-04T08:57:56.527Z,34.40
2019-01-04T09:00:22.645Z,34.40
2019-01-04T09:02:48.678Z,34.50
2019-01-04T09:05:14.623Z,34.50
2019-01-04T09:07:40.560Z,34.40
2019-01-04T09:10:06.513Z,34.20
2019-01-04T09:12:32.473Z,34.20
2019-01-04T09:14:58.408Z,34.30
2019-01-04T09:17:24.338Z,34.30
2019-01-04T09:19:50.277Z,34.40
2019-01-04T09:22:16.232Z,34.50
2019-01-04T09:24:42.166Z,34.50
2019-01-04T09:27:08.124Z,34.50
2019-01-04T09:29:34.057Z,34.50
2019-01-04T09:31:59.990Z,34.50
2019-01-04T09:34:25.920Z,34.50
2019-01-04T09:36:51.866Z,34.50
2019-01-04T09:39:17.941Z,34.50
2019-01-04T09:41:44.037Z,34.50
2019-01-04T09:44:10.071Z,34.50
2019-01-04T09:46:36.680Z,34.50
2019-01-04T09:49:02.617Z,34.50
2019-01-04T09:51:28.600Z,34.50
2019-01-04T09:53:54.640Z,34.50
2019-01-04T09:56:20.573Z,34.50
2019-01-04T09:58:46.532Z,34.50
2019-01-04T10:01:12.471Z,34.50
2019-01-04T10:03:38.452Z,34.50
2019-01-04T10:06:05.003Z,34.40
2019-01-04T10:08:30.972Z,34.40
2019-01-04T10:10:56.932Z,34.40
2019-01-04T10:13:22.875Z,34.40
2019-01-04T10:15:48.810Z,34.40
2019-01-04T10:18:14.776Z,34.40
2019-01-04T10:20:40.714Z,34.40
2019-01-04T10:23:06.651Z,34.30
2019-01-04T10:25:32.622Z,34.30
2019-01-04T10:27:58.550Z,34.40
2019-01-04T10:30:24.534Z,34.50
2019-01-04T10:32:50.470Z,34.60
2019-01-04T10:35:16.452Z,34.80
2019-01-04T10:37:42.388Z,34.70
2019-01-04T10:40:11.125Z,34.70
2019-01-04T10:42:36.214Z,34.70
2019-01-04T10:45:02.183Z,34.90
2019-01-04T10:47:28.136Z,34.50
2019-01-04T10:49:54.094Z,35.00
2019-01-04T10:52:20.046Z,34.40
2019-01-04T10:54:45.999Z,34.40
2019-01-04T10:57:11.976Z,34.50
2019-01-04T10:59:37.908Z,34.50
2019-01-04T11:02:03.862Z,34.60
2019-01-04T11:04:29.804Z,34.50
2019-01-04T11:06:55.771Z,34.60
2019-01-04T11:09:21.711Z,34.60
2019-01-04T11:11:47.672Z,34.50
2019-01-04T11:14:13.641Z,34.60
2019-01-04T11:16:39.907Z,34.60
2019-01-04T11:19:05.855Z,34.50
2019-01-04T11:21:31.833Z,34.60
2019-01-04T11:23:57.875Z,34.50
2019-01-04T11:26:23.880Z,34.60
2019-01-04T11:28:49.912Z,34.60
2019-01-04T11:31:15.964Z,34.50
2019-01-04T11:33:43.019Z,34.60
2019-01-04T11:36:09.186Z,34.60
2019-01-04T11:38:35.143Z,34.50
2019-01-04T11:41:01.084Z,34.50
2019-01-04T11:43:27.026Z,34.60
2019-01-04T11:45:52.972Z,34.50
2019-01-04T11:48:18.938Z,34.60
2019-01-04T11:50:45.115Z,34.50
2019-01-04T11:53:11.089Z,34.50
2019-01-04T11:55:37.030Z,34.50
2019-01-04T11:58:03.004Z,34.50
2019-01-04T12:00:29.875Z,34.50
2019-01-04T12:02:55.830Z,34.50
2019-01-04T12:05:21.787Z,34.50
2019-01-04T12:07:47.777Z,34.50
2019-01-04T12:10:13.713Z,34.40
2019-01-04T12:12:39.670Z,34.40
2019-01-04T12:15:05.621Z,34.40
2019-01-04T12:17:31.591Z,34.40
2019-01-04T12:19:57.531Z,34.40
2019-01-04T12:22:23.477Z,34.60
2019-01-04T12:24:49.411Z,34.80
2019-01-04T12:27:15.381Z,34.90
2019-01-04T12:29:41.322Z,34.90
2019-01-04T12:32:07.279Z,34.90
2019-01-04T12:34:33.245Z,34.90
2019-01-04T12:36:59.301Z,34.90
2019-01-04T12:39:25.263Z,34.80
2019-01-04T12:41:51.221Z,34.60
2019-01-04T12:44:17.171Z,34.50
2019-01-04T12:46:43.999Z,34.40
2019-01-04T12:49:09.947Z,34.40
2019-01-04T12:51:35.920Z,35.10
2019-01-04T12:54:01.979Z,34.40
2019-01-04T12:56:29.213Z,34.40
2019-01-04T12:58:55.161Z,34.50
2019-01-04T13:01:21.128Z,34.50
2019-01-04T13:03:47.097Z,34.50
2019-01-04T13:06:13.039Z,34.50
2019-01-04T13:08:39.003Z,34.50
2019-01-04T13:11:04.934Z,34.50
2019-01-04T13:13:30.875Z,34.50
2019-01-04T13:15:56.834Z,34.50
2019-01-04T13:18:22.880Z,34.50
2019-01-04T13:20:48.822Z,34.50
2019-01-04T13:23:14.780Z,34.50
2019-01-04T13:25:40.733Z,34.50
2019-01-04T13:28:06.704Z,34.50
2019-01-04T13:30:32.656Z,34.50
2019-01-04T13:32:58.724Z,34.40
2019-01-04T13:35:24.653Z,34.40
2019-01-04T13:37:50.618Z,34.40
2019-01-04T13:40:16.554Z,34.40
2019-01-04T13:42:42.513Z,34.40
2019-01-04T13:45:08.593Z,34.40
2019-01-04T13:47:34.555Z,34.40
2019-01-04T13:50:00.617Z,34.30
2019-01-04T13:52:26.580Z,34.30
2019-01-04T13:54:52.526Z,34.40
2019-01-04T13:57:18.480Z,34.30
2019-01-04T13:59:44.421Z,34.30
2019-01-04T14:02:10.372Z,34.40
2019-01-04T14:04:36.326Z,34.40
2019-01-04T14:07:02.284Z,34.40
2019-01-04T14:09:28.332Z,34.40
2019-01-04T14:11:54.276Z,34.30
2019-01-04T14:14:20.212Z,34.30
2019-01-04T14:16:46.165Z,34.40
2019-01-04T14:19:12.128Z,34.40
2019-01-04T14:21:38.050Z,34.40
2019-01-04T14:24:04.001Z,34.40
2019-01-04T14:26:29.945Z,34.40
2019-01-04T14:28:55.880Z,34.40
2019-01-04T14:31:21.818Z,34.40
2019-01-04T14:33:47.765Z,34.40
2019-01-04T14:36:13.726Z,34.40
2019-01-04T14:38:39.660Z,34.40
2019-01-04T14:41:05.598Z,34.40
2019-01-04T14:43:31.656Z,34.40
2019-01-04T14:45:57.612Z,34.40
2019-01-04T14:48:23.657Z,34.50
2019-01-04T14:50:49.613Z,34.40
2019-01-04T14:53:16.480Z,34.50
2019-01-04T14:55:42.532Z,34.50
2019-01-04T14:58:08.476Z,34.50
2019-01-04T15:00:34.413Z,34.50
2019-01-04T15:03:00.366Z,34.50
2019-01-04T15:05:26.317Z,34.50
2019-01-04T15:07:52.274Z,34.50
2019-01-04T15:10:18.242Z,34.50
2019-01-04T15:12:44.190Z,34.50
2019-01-04T15:15:10.135Z,34.50
2019-01-04T15:17:36.063Z,34.50
2019-01-04T15:20:02.133Z,34.50
2019-01-04T15:22:28.060Z,34.50
2019-01-04T15:24:54.020Z,34.50
2019-01-04T15:27:19.971Z,34.50
2019-01-04T15:29:45.937Z,34.40
2019-01-04T15:32:11.987Z,34.40
2019-01-04T15:34:37.960Z,34.40
2019-01-04T15:37:03.889Z,34.40
2019-01-04T15:39:29.850Z,34.40
2019-01-04T15:41:55.815Z,34.40
2019-01-04T15:44:21.772Z,34.40
2019-01-04T15:46:47.729Z,34.40
2019-01-04T15:49:13.671Z,34.40
2019-01-04T15:51:39.633Z,34.40
2019-01-04T15:54:05.601Z,34.50
2019-01-04T15:56:31.569Z,34.30
2019-01-04T15:58:57.506Z,34.40
2019-01-04T16:01:23.461Z,34.60
2019-01-04T16:03:49.421Z,34.50
2019-01-04T16:06:15.616Z,34.40
2019-01-04T16:08:41.577Z,34.50
2019-01-04T16:11:07.513Z,34.70
2019-01-04T16:13:33.511Z,34.40
2019-01-04T16:15:59.550Z,34.40
2019-01-04T16:18:26.452Z,34.40
2019-01-04T16:20:52.513Z,34.40
2019-01-04T16:23:18.671Z,34.40
2019-01-04T16:25:44.649Z,34.40
2019-01-04T16:28:10.637Z,34.40
2019-01-04T16:30:36.793Z,34.40
2019-01-04T16:33:02.881Z,34.40
2019-01-04T16:35:28.917Z,34.40
2019-01-04T16:37:54.880Z,34.40
2019-01-04T16:40:20.821Z,34.40
2019-01-04T16:42:46.797Z,34.40
2019-01-04T16:45:12.768Z,34.40
2019-01-04T16:47:39.049Z,34.40
2019-01-04T16:50:05.109Z,34.40
2019-01-04T16:52:31.074Z,34.40
2019-01-04T16:54:57.079Z,34.40
2019-01-04T16:57:23.865Z,34.60
2019-01-04T16:59:49.809Z,34.60
2019-01-04T17:02:15.794Z,34.90
2019-01-04T17:04:41.746Z,34.70
2019-01-04T17:07:07.711Z,34.50
2019-01-04T17:09:33.679Z,34.40
2019-01-04T17:11:59.639Z,34.40
2019-01-04T17:14:25.687Z,34.50
2019-01-04T17:16:51.620Z,34.50
2019-01-04T17:19:17.612Z,34.50
2019-01-04T17:21:43.563Z,34.50
2019-01-04T17:24:09.518Z,34.50
2019-01-04T17:26:35.459Z,34.50
2019-01-04T17:29:01.408Z,34.50
2019-01-04T17:31:27.353Z,34.50
2019-01-04T17:33:53.375Z,34.50
2019-01-04T17:36:20.130Z,34.50
2019-01-04T17:38:46.074Z,34.50
2019-01-04T17:41:12.035Z,34.50
2019-01-04T17:43:37.977Z,34.40
2019-01-04T17:46:03.922Z,34.40
2019-01-04T17:48:29.856Z,34.60
2019-01-04T17:50:55.811Z,34.60
2019-01-04T17:53:21.860Z,34.80
2019-01-04T17:55:53.094Z,34.60
2019-01-04T17:58:19.148Z,35.30
2019-01-04T18:00:45.081Z,34.60
2019-01-04T18:03:11.071Z,34.60
2019-01-04T18:05:37.155Z,34.50
2019-01-04T18:08:03.327Z,34.60
2019-01-04T18:10:29.285Z,34.60
2019-01-04T18:12:55.325Z,34.70
2019-01-04T18:15:21.290Z,34.70
2019-01-04T18:17:47.259Z,34.70
2019-01-04T18:20:13.957Z,34.60
2019-01-04T18:22:40.059Z,34.40
2019-01-04T18:25:06.018Z,34.40
2019-01-04T18:27:31.953Z,34.50
2019-01-04T18:29:57.980Z,34.60
2019-01-04T18:32:24.058Z,34.70
2019-01-04T18:34:49.999Z,34.80
2019-01-04T18:37:15.932Z,34.90
2019-01-04T18:39:41.873Z,34.90
2019-01-04T18:42:07.825Z,34.90
2019-01-04T18:44:33.786Z,34.90
2019-01-04T18:46:59.730Z,34.90
2019-01-04T18:49:25.678Z,34.90
2019-01-04T18:51:51.630Z,34.90
2019-01-04T18:54:17.572Z,34.90
2019-01-04T18:56:43.518Z,34.90
2019-01-04T18:59:09.486Z,34.90
2019-01-04T19:01:35.534Z,34.90
2019-01-04T19:04:01.577Z,34.90
2019-01-04T19:06:31.126Z,35.10
2019-01-04T19:08:55.398Z,35.10
2019-01-04T19:11:21.861Z,34.90
2019-01-04T19:13:47.824Z,35.00
2019-01-04T19:16:14.210Z,35.00
2019-01-04T19:18:40.161Z,35.10
2019-01-04T19:21:06.121Z,35.10
2019-01-04T19:23:32.092Z,35.10
2019-01-04T19:25:58.049Z,35.10
2019-01-04T19:28:24.082Z,35.20
2019-01-04T19:30:50.046Z,35.20
2019-01-04T19:33:15.987Z,35.10
2019-01-04T19:35:41.926Z,35.60
2019-01-04T19:38:07.891Z,34.90
2019-01-04T19:40:33.843Z,35.00
2019-01-04T19:42:59.898Z,35.00
2019-01-04T19:45:25.863Z,35.00
2019-01-04T19:47:51.847Z,35.00
2019-01-04T19:50:17.783Z,35.10
2019-01-04T19:52:43.736Z,35.00
2019-01-04T19:55:09.694Z,35.10
2019-01-04T19:57:35.676Z,35.00
2019-01-04T20:00:01.631Z,34.90
2019-01-04T20:02:27.568Z,35.00
2019-01-04T20:04:53.519Z,34.90
2019-01-04T20:07:33.768Z,34.90
2019-01-04T20:10:18.293Z,34.90
2019-01-04T20:13:03.071Z,35.10
2019-01-04T20:15:33.969Z,35.20
2019-01-04T20:18:11.062Z,35.20
2019-01-04T20:20:38.970Z,35.30
2019-01-04T20:23:10.054Z,35.30
2019-01-04T20:25:43.625Z,35.30
2019-01-04T20:28:24.670Z,35.20
2019-01-04T20:31:09.326Z,35.20
2019-01-04T20:33:46.112Z,35.30
2019-01-04T20:36:22.959Z,35.40
2019-01-04T20:39:06.210Z,35.30
2019-01-04T20:41:40.337Z,35.40
2019-01-04T20:44:14.312Z,35.40
2019-01-04T20:46:57.271Z,35.30
2019-01-04T20:49:25.149Z,35.20
2019-01-04T20:52:05.059Z,35.20
2019-01-04T20:54:45.236Z,35.00
2019-01-04T20:57:22.467Z,35.10
2019-01-04T20:59:50.330Z,35.20
2019-01-04T21:02:21.213Z,35.10
2019-01-04T21:04:49.091Z,35.20
2019-01-04T21:07:16.964Z,35.20
2019-01-04T21:09:51.892Z,35.30
2019-01-04T21:12:35.380Z,35.40
2019-01-04T21:15:20.210Z,35.40
2019-01-04T21:18:06.357Z,35.50
2019-01-04T21:20:43.525Z,35.50
2019-01-04T21:23:11.368Z,35.40
2019-01-04T21:25:42.107Z,35.40
2019-01-04T21:28:16.113Z,35.90
2019-01-04T21:31:00.687Z,35.40
2019-01-04T21:33:43.707Z,35.40
2019-01-04T21:36:17.390Z,35.40
2019-01-04T21:38:48.027Z,35.40
2019-01-04T21:41:21.967Z,35.40
2019-01-04T21:44:02.006Z,35.40
2019-01-04T21:46:35.958Z,35.40
2019-01-04T21:49:22.469Z,35.30
2019-01-04T21:51:53.326Z,35.40
2019-01-04T21:54:21.265Z,35.40
2019-01-04T21:56:55.743Z,35.40
2019-01-04T21:59:32.661Z,35.30
2019-01-04T22:02:10.838Z,35.30
2019-01-04T22:04:38.887Z,35.20
2019-01-04T22:07:15.894Z,35.30
2019-01-04T22:09:43.858Z,35.30
2019-01-04T22:12:20.881Z,35.30
2019-01-04T22:14:54.744Z,35.30
2019-01-04T22:17:37.818Z,35.40
2019-01-04T22:20:11.694Z,35.40
2019-01-04T22:22:56.369Z,35.30
2019-01-04T22:25:41.116Z,35.40
2019-01-04T22:28:26.031Z,35.40
2019-01-04T22:30:53.894Z,35.40
2019-01-04T22:33:40.049Z,35.40
2019-01-04T22:36:16.732Z,35.50
2019-01-04T22:38:44.601Z,35.50
2019-01-04T22:41:29.210Z,35.50
2019-01-04T22:43:57.057Z,35.60
2019-01-04T22:46:30.878Z,35.60
2019-01-04T22:49:07.718Z,35.50
2019-01-04T22:51:50.624Z,35.50
2019-01-04T22:54:35.329Z,35.60
2019-01-04T22:57:03.188Z,35.60
2019-01-04T22:59:33.840Z,35.70
2019-01-04T23:02:01.780Z,35.80
2019-01-04T23:04:47.796Z,35.80
2019-01-04T23:07:18.697Z,35.90
2019-01-04T23:09:52.834Z,35.80
2019-01-04T23:12:26.641Z,35.80
2019-01-04T23:15:06.872Z,35.70
2019-01-04T23:17:34.718Z,35.70
2019-01-04T23:20:14.950Z,35.70
2019-01-04T23:22:45.551Z,35.70
2019-01-04T23:25:13.456Z,35.80
2019-01-04T23:27:44.305Z,35.80
2019-01-04T23:30:12.178Z,35.70
2019-01-04T23:32:43.076Z,35.80
2019-01-04T23:35:26.304Z,35.70
2019-01-04T23:38:00.519Z,35.70
2019-01-04T23:40:37.690Z,35.70
2019-01-04T23:43:11.862Z,35.70
2019-01-04T23:45:39.802Z,35.70
2019-01-04T23:48:10.689Z,35.70
2019-01-04T23:50:38.652Z,35.70
2019-01-04T23:53:12.533Z,35.70
2019-01-04T23:55:46.223Z,35.70
2019-01-04T23:58:23.355Z,35.70
